createdAt,value
2023-05-05T00:01:45.665Z,99005.16
2023-05-05T00:04:12.436Z,98999.03
2023-05-05T00:06:38.934Z,99001.56
2023-05-05T00:09:06.097Z,98999.03
2023-05-05T00:11:32.661Z,98979.31
2023-05-05T00:13:59.256Z,99003.16
2023-05-05T00:16:25.838Z,98972.97
2023-05-05T00:18:52.736Z,98974.75
2023-05-05T00:21:19.359Z,98985.56
2023-05-05T00:23:46.299Z,98969.47
2023-05-05T00:26:12.809Z,98976.97
2023-05-05T00:28:40.046Z,98983.97
2023-05-05T00:31:07.507Z,98986.50
2023-05-05T00:33:34.227Z,98991.81
2023-05-05T00:36:00.842Z,98974.88
2023-05-05T00:38:27.404Z,98974.88
2023-05-05T00:40:54.071Z,98963.41
2023-05-05T00:43:20.689Z,98980.38
2023-05-05T00:45:48.164Z,98975.19
2023-05-05T00:48:16.829Z,98958.88
2023-05-05T00:50:44.260Z,98981.31
2023-05-05T00:53:11.939Z,98949.56
2023-05-05T00:55:38.568Z,98974.34
2023-05-05T00:58:05.195Z,98966.38
2023-05-05T01:00:32.136Z,98959.94
2023-05-05T01:02:59.564Z,98956.22
2023-05-05T01:05:33.138Z,98982.38
2023-05-05T01:08:03.959Z,98962.28
2023-05-05T01:10:52.936Z,98956.03
2023-05-05T01:13:43.293Z,98961.31
2023-05-05T01:16:29.637Z,98957.81
2023-05-05T01:19:28.572Z,98891.13
2023-05-05T01:22:02.235Z,98960.56
2023-05-05T01:24:59.232Z,98914.81
2023-05-05T01:27:44.859Z,98958.88
2023-05-05T01:30:28.570Z,98957.19
2023-05-05T01:33:00.383Z,98963.34
2023-05-05T01:35:32.908Z,98956.22
2023-05-05T01:38:07.111Z,98949.22
2023-05-05T01:40:47.998Z,98944.06
2023-05-05T01:43:19.915Z,98922.28
2023-05-05T01:45:48.593Z,98944.88
2023-05-05T01:48:18.320Z,98942.59
2023-05-05T01:50:47.788Z,98945.88
2023-05-05T01:53:17.493Z,98943.22
2023-05-05T01:55:46.196Z,98942.47
2023-05-05T01:58:14.892Z,98930.50
2023-05-05T02:00:42.741Z,98937.38
2023-05-05T02:03:13.653Z,98945.94
2023-05-05T02:05:41.958Z,98943.41
2023-05-05T02:08:10.826Z,98927.56
2023-05-05T02:10:40.838Z,98948.84
2023-05-05T02:13:10.536Z,98932.50
2023-05-05T02:15:39.297Z,98919.00
2023-05-05T02:18:06.532Z,98938.78
2023-05-05T02:20:34.140Z,98949.16
2023-05-05T02:23:00.767Z,98929.66
2023-05-05T02:25:35.606Z,98933.81
2023-05-05T02:28:03.706Z,98952.44
2023-05-05T02:30:34.541Z,98951.59
2023-05-05T02:33:07.080Z,98933.06
2023-05-05T02:35:37.833Z,98955.19
2023-05-05T02:38:09.777Z,98948.19
2023-05-05T02:40:43.249Z,98911.88
2023-05-05T02:43:15.590Z,98942.91
2023-05-05T02:45:42.260Z,98945.97
2023-05-05T02:48:10.612Z,98950.22
2023-05-05T02:50:38.877Z,98950.41
2023-05-05T02:53:27.065Z,98952.75
2023-05-05T02:56:02.176Z,98941.53
2023-05-05T02:58:51.939Z,98945.13
2023-05-05T03:01:28.049Z,98956.34
2023-05-05T03:04:17.849Z,98901.28
2023-05-05T03:06:53.774Z,98948.75
2023-05-05T03:09:30.796Z,98958.16
2023-05-05T03:12:05.392Z,98962.63
2023-05-05T03:14:43.433Z,98945.75
2023-05-05T03:17:14.732Z,98948.69
2023-05-05T03:19:43.024Z,98966.09
2023-05-05T03:22:10.063Z,98959.97
2023-05-05T03:24:39.533Z,98954.66
2023-05-05T03:27:09.368Z,98944.81
2023-05-05T03:29:38.630Z,98950.53
2023-05-05T03:32:09.864Z,98952.97
2023-05-05T03:34:37.829Z,98941.13
2023-05-05T03:37:05.567Z,98957.41
2023-05-05T03:39:32.365Z,98946.94
2023-05-05T03:41:59.442Z,98952.97
2023-05-05T03:44:29.621Z,98948.09
2023-05-05T03:46:57.091Z,98960.91
2023-05-05T03:49:24.108Z,98953.28
2023-05-05T03:51:51.894Z,98957.41
2023-05-05T03:54:18.581Z,98954.66
2023-05-05T03:56:45.397Z,98949.56
2023-05-05T03:59:12.053Z,98947.25
2023-05-05T04:01:38.913Z,98955.63
2023-05-05T04:04:05.844Z,98929.97
2023-05-05T04:06:32.800Z,98937.41
2023-05-05T04:08:59.398Z,98934.00
2023-05-05T04:11:26.245Z,98950.22
2023-05-05T04:13:57.945Z,98955.63
2023-05-05T04:16:26.558Z,98920.97
2023-05-05T04:18:53.729Z,98947.56
2023-05-05T04:21:20.556Z,98955.38
2023-05-05T04:23:47.332Z,98946.09
2023-05-05T04:26:13.873Z,98967.78
2023-05-05T04:28:41.932Z,98963.31
2023-05-05T04:31:09.058Z,98961.00
2023-05-05T04:33:38.388Z,98969.50
2023-05-05T04:36:05.743Z,98963.66
2023-05-05T04:38:32.768Z,98979.09
2023-05-05T04:41:00.521Z,98959.63
2023-05-05T04:43:27.889Z,98972.22
2023-05-05T04:45:55.706Z,98975.63
2023-05-05T04:48:25.925Z,98984.19
2023-05-05T04:50:52.541Z,98931.47
2023-05-05T04:53:19.114Z,98977.00
2023-05-05T04:55:45.705Z,98981.31
2023-05-05T04:58:12.210Z,98921.19
2023-05-05T05:00:38.928Z,98983.88
2023-05-05T05:03:05.776Z,98987.38
2023-05-05T05:05:32.937Z,98983.03
2023-05-05T05:07:59.604Z,98992.53
2023-05-05T05:10:26.224Z,98977.31
2023-05-05T05:12:52.804Z,98997.53
2023-05-05T05:15:20.304Z,98989.81
2023-05-05T05:17:47.175Z,99002.94
2023-05-05T05:20:14.282Z,99003.22
2023-05-05T05:22:42.106Z,99006.81
2023-05-05T05:25:13.099Z,99006.09
2023-05-05T05:27:41.608Z,99012.31
2023-05-05T05:30:09.814Z,98996.00
2023-05-05T05:32:36.861Z,99007.34
2023-05-05T05:35:04.568Z,98999.63
2023-05-05T05:37:31.529Z,99005.09
2023-05-05T05:39:59.090Z,98993.88
2023-05-05T05:42:27.080Z,98993.13
2023-05-05T05:44:53.738Z,98966.09
2023-05-05T05:47:20.449Z,99008.16
2023-05-05T05:49:47.176Z,98991.22
2023-05-05T05:52:13.875Z,98997.34
2023-05-05T05:54:41.120Z,98974.25
2023-05-05T05:57:09.207Z,98991.97
2023-05-05T05:59:36.167Z,98970.25
2023-05-05T06:02:03.428Z,98988.91
2023-05-05T06:04:32.152Z,99016.13
2023-05-05T06:06:59.477Z,99016.75
2023-05-05T06:09:26.409Z,98988.47
2023-05-05T06:11:54.544Z,98977.47
2023-05-05T06:14:21.080Z,99011.81
2023-05-05T06:16:48.193Z,99015.22
2023-05-05T06:19:18.819Z,98990.09
2023-05-05T06:21:48.358Z,99003.88
2023-05-05T06:24:15.254Z,99013.09
2023-05-05T06:26:41.961Z,99005.28
2023-05-05T06:29:10.461Z,98966.88
2023-05-05T06:31:38.747Z,99013.63
2023-05-05T06:34:08.863Z,99017.97
2023-05-05T06:36:35.680Z,99022.31
2023-05-05T06:39:02.233Z,99019.56
2023-05-05T06:41:28.814Z,99021.25
2023-05-05T06:43:55.427Z,98998.91
2023-05-05T06:46:22.357Z,98994.78
2023-05-05T06:48:49.028Z,98991.41
2023-05-05T06:51:16.101Z,99021.03
2023-05-05T06:53:42.707Z,99017.34
2023-05-05T06:56:09.252Z,99024.31
2023-05-05T07:00:59.157Z,99024.13
2023-05-05T07:03:28.024Z,99017.88
2023-05-05T07:05:54.917Z,99019.59
2023-05-05T07:08:25.086Z,99003.56
2023-05-05T07:10:51.749Z,99005.28
2023-05-05T07:13:18.329Z,98993.81
2023-05-05T07:15:46.504Z,99000.69
2023-05-05T07:18:16.888Z,99007.69
2023-05-05T07:20:44.487Z,99000.69
2023-05-05T07:23:11.397Z,99004.84
2023-05-05T07:25:38.377Z,98992.56
2023-05-05T07:28:05.143Z,99003.53
2023-05-05T07:30:31.822Z,98997.31
2023-05-05T07:32:58.523Z,99001.53
2023-05-05T07:35:25.293Z,98983.44
2023-05-05T07:37:52.196Z,98998.81
2023-05-05T07:40:18.853Z,99004.94
2023-05-05T07:42:47.397Z,98996.88
2023-05-05T07:45:13.991Z,99002.91
2023-05-05T07:47:40.809Z,99001.84
2023-05-05T07:50:08.374Z,98997.31
2023-05-05T07:52:46.578Z,98988.38
2023-05-05T07:55:16.626Z,98994.31
2023-05-05T07:57:43.176Z,98993.34
2023-05-05T08:00:10.742Z,98989.63
2023-05-05T08:02:41.283Z,98992.19
2023-05-05T08:05:08.858Z,98991.13
2023-05-05T08:07:38.133Z,98980.28
2023-05-05T08:10:05.697Z,98989.00
2023-05-05T08:12:32.225Z,98992.31
2023-05-05T08:14:58.839Z,98991.34
2023-05-05T08:17:26.979Z,99000.00
2023-05-05T08:19:53.661Z,98989.31
2023-05-05T08:22:21.673Z,98994.50
2023-05-05T08:24:51.024Z,98994.38
2023-05-05T08:27:17.497Z,98994.38
2023-05-05T08:29:44.056Z,98993.44
2023-05-05T08:32:10.775Z,98993.63
2023-05-05T08:34:37.361Z,99004.78
2023-05-05T08:37:04.076Z,99001.38
2023-05-05T08:39:31.756Z,98999.50
2023-05-05T08:41:58.738Z,98996.91
2023-05-05T08:44:26.948Z,98991.63
2023-05-05T08:46:54.709Z,99004.88
2023-05-05T08:49:22.500Z,98995.13
2023-05-05T08:51:52.158Z,98982.53
2023-05-05T08:54:20.344Z,98994.28
2023-05-05T08:56:49.319Z,98982.31
2023-05-05T08:59:17.445Z,98998.28
2023-05-05T09:01:44.997Z,98988.44
2023-05-05T09:04:11.579Z,98984.72
2023-05-05T09:06:38.221Z,98981.94
2023-05-05T09:09:05.140Z,98988.06
2023-05-05T09:11:34.248Z,98987.03
2023-05-05T09:14:01.829Z,98990.41
2023-05-05T09:16:28.494Z,98978.84
2023-05-05T09:19:06.572Z,98991.97
2023-05-05T09:24:10.537Z,98993.47
2023-05-05T09:26:41.343Z,99000.44
2023-05-05T09:29:08.110Z,98997.69
2023-05-05T09:31:36.378Z,99005.66
2023-05-05T09:34:14.925Z,99010.00
2023-05-05T09:36:48.758Z,98996.63
2023-05-05T09:39:20.158Z,98996.75
2023-05-05T09:41:47.126Z,98998.53
2023-05-05T09:44:17.057Z,99001.19
2023-05-05T09:46:52.129Z,99001.19
2023-05-05T09:49:23.440Z,98995.88
2023-05-05T09:51:50.061Z,98991.31
2023-05-05T09:54:30.183Z,98993.03
2023-05-05T09:56:57.509Z,98994.72
2023-05-05T09:59:24.524Z,98991.09
2023-05-05T10:01:51.475Z,98987.34
2023-05-05T10:04:29.068Z,98981.97
2023-05-05T10:06:59.158Z,98983.75
2023-05-05T10:09:27.048Z,98990.63
2023-05-05T10:11:54.421Z,98978.84
2023-05-05T10:14:26.969Z,98984.03
2023-05-05T10:16:55.232Z,98987.53
2023-05-05T10:19:24.712Z,98986.56
2023-05-05T10:22:02.694Z,98990.91
2023-05-05T10:24:53.516Z,98994.41
2023-05-05T10:27:23.962Z,98973.13
2023-05-05T10:30:23.260Z,98984.66
2023-05-05T10:33:18.507Z,98982.97
2023-05-05T10:35:53.475Z,98984.66
2023-05-05T10:38:24.640Z,98981.06
2023-05-05T10:40:52.524Z,98981.06
2023-05-05T10:43:19.171Z,98968.25
2023-05-05T10:45:46.331Z,98975.63
2023-05-05T10:48:25.759Z,98958.59
2023-05-05T10:50:58.914Z,98969.38
2023-05-05T10:53:36.838Z,98963.19
2023-05-05T10:56:14.726Z,98968.50
2023-05-05T10:58:58.303Z,98950.31
2023-05-05T11:01:33.188Z,98960.34
2023-05-05T11:04:21.035Z,98955.78
2023-05-05T11:07:13.409Z,98960.09
2023-05-05T11:10:01.590Z,98938.50
2023-05-05T11:12:29.873Z,98952.88
2023-05-05T11:15:27.845Z,98946.59
2023-05-05T11:17:56.105Z,98941.31
2023-05-05T11:20:43.576Z,98940.38
2023-05-05T11:23:10.259Z,98949.03
2023-05-05T11:25:37.406Z,98953.41
2023-05-05T11:28:12.756Z,98948.94
2023-05-05T11:30:58.551Z,98950.75
2023-05-05T11:33:31.542Z,98944.47
2023-05-05T11:36:06.759Z,98944.47
2023-05-05T11:38:57.241Z,98944.47
2023-05-05T11:41:32.789Z,98944.34
2023-05-05T11:44:32.696Z,98947.00
2023-05-05T11:47:02.512Z,98952.22
2023-05-05T11:49:31.213Z,98944.34
2023-05-05T11:52:08.577Z,98941.59
2023-05-05T11:54:50.148Z,98930.59
2023-05-05T11:57:21.069Z,98935.34
2023-05-05T11:59:56.236Z,98944.00
2023-05-05T12:02:28.092Z,98937.13
2023-05-05T12:04:55.111Z,98935.34
2023-05-05T12:07:24.889Z,98943.88
2023-05-05T12:09:52.824Z,98927.59
2023-05-05T12:12:20.153Z,98938.59
2023-05-05T12:14:52.387Z,98946.53
2023-05-05T12:17:20.746Z,98931.50
2023-05-05T12:19:54.986Z,98930.63
2023-05-05T12:22:27.838Z,98921.09
2023-05-05T12:24:55.144Z,98937.28
2023-05-05T12:27:22.244Z,98927.50
2023-05-05T12:29:49.446Z,98916.66
2023-05-05T12:32:21.037Z,98919.19
2023-05-05T12:34:48.852Z,98919.53
2023-05-05T12:37:18.978Z,98923.81
2023-05-05T12:39:45.772Z,98917.63
2023-05-05T12:42:12.670Z,98923.66
2023-05-05T12:44:40.591Z,98918.38
2023-05-05T12:47:07.610Z,98896.75
2023-05-05T12:49:52.819Z,98911.22
2023-05-05T12:52:19.538Z,98901.69
2023-05-05T12:54:59.430Z,98908.59
2023-05-05T12:57:26.424Z,98901.69
2023-05-05T12:59:53.762Z,98883.59
2023-05-05T13:02:20.835Z,98895.06
2023-05-05T13:04:52.343Z,98898.22
2023-05-05T13:07:21.588Z,98890.25
2023-05-05T13:09:50.878Z,98901.56
2023-05-05T13:12:18.202Z,98877.56
2023-05-05T13:14:46.425Z,98883.38
2023-05-05T13:17:13.857Z,98878.06
2023-05-05T13:19:46.376Z,98877.09
2023-05-05T13:22:14.005Z,98876.88
2023-05-05T13:24:50.618Z,98862.50
2023-05-05T13:27:19.005Z,98865.03
2023-05-05T13:29:46.112Z,98872.50
2023-05-05T13:32:12.840Z,98877.81
2023-05-05T13:34:39.655Z,98869.84
2023-05-05T13:37:06.548Z,98869.03
2023-05-05T13:39:33.176Z,98872.50
2023-05-05T13:42:00.469Z,98866.38
2023-05-05T13:44:27.005Z,98866.38
2023-05-05T13:46:53.693Z,98783.06
2023-05-05T13:49:20.457Z,98858.41
2023-05-05T13:51:47.311Z,98860.19
2023-05-05T13:54:14.083Z,98857.44
2023-05-05T13:56:40.848Z,98829.44
2023-05-05T13:59:07.497Z,98848.50
2023-05-05T14:01:34.164Z,98832.56
2023-05-05T14:04:03.658Z,98846.84
2023-05-05T14:06:32.586Z,98841.53
2023-05-05T14:08:59.253Z,98836.56
2023-05-05T14:11:25.938Z,98824.88
2023-05-05T14:13:52.721Z,98841.53
2023-05-05T14:16:19.602Z,98840.94
2023-05-05T14:18:46.248Z,98843.19
2023-05-05T14:21:12.910Z,98845.84
2023-05-05T14:23:39.515Z,98830.78
2023-05-05T14:26:06.634Z,98824.50
2023-05-05T14:28:33.192Z,98819.31
2023-05-05T14:30:59.785Z,98815.94
2023-05-05T14:33:26.598Z,98821.75
2023-05-05T14:35:53.395Z,98833.56
2023-05-05T14:38:19.932Z,98833.44
2023-05-05T14:40:46.628Z,98830.06
2023-05-05T14:43:13.155Z,98833.44
2023-05-05T14:45:39.890Z,98830.78
2023-05-05T14:48:06.487Z,98818.69
2023-05-05T14:50:33.100Z,98827.53
2023-05-05T14:52:59.679Z,98831.63
2023-05-05T14:55:26.490Z,98807.75
2023-05-05T14:57:53.368Z,98811.22
2023-05-05T15:00:20.037Z,98829.09
2023-05-05T15:02:48.390Z,98828.13
2023-05-05T15:05:15.479Z,98838.00
2023-05-05T15:07:42.055Z,98832.72
2023-05-05T15:10:09.064Z,98812.91
2023-05-05T15:12:35.750Z,98822.69
2023-05-05T15:15:02.658Z,98834.28
2023-05-05T15:17:30.773Z,98823.66
2023-05-05T15:19:57.562Z,98816.53
2023-05-05T15:22:24.158Z,98829.09
2023-05-05T15:24:50.936Z,98831.00
2023-05-05T15:27:18.119Z,98832.56
2023-05-05T15:29:45.239Z,98828.34
2023-05-05T15:32:12.020Z,98782.34
2023-05-05T15:34:38.752Z,98839.44
2023-05-05T15:37:05.684Z,98835.97
2023-05-05T15:39:32.384Z,98814.59
2023-05-05T15:42:03.618Z,98839.44
2023-05-05T15:44:30.722Z,98835.84
2023-05-05T15:46:57.587Z,98831.41
2023-05-05T15:49:24.198Z,98828.97
2023-05-05T15:51:51.210Z,98832.84
2023-05-05T15:54:17.862Z,98832.47
2023-05-05T15:56:44.434Z,98821.47
2023-05-05T15:59:11.705Z,98816.44
2023-05-05T16:01:38.821Z,98833.44
2023-05-05T16:04:06.202Z,98830.66
2023-05-05T16:06:32.853Z,98829.84
2023-05-05T16:08:59.422Z,98815.09
2023-05-05T16:11:26.554Z,98824.53
2023-05-05T16:13:53.543Z,98826.19
2023-05-05T16:16:20.426Z,98817.66
2023-05-05T16:18:47.227Z,98818.34
2023-05-05T16:21:14.023Z,98800.50
2023-05-05T16:23:40.739Z,98783.50
2023-05-05T16:26:07.263Z,98816.91
2023-05-05T16:28:34.371Z,98814.88
2023-05-05T16:31:02.180Z,98804.47
2023-05-05T16:33:29.488Z,98809.19
2023-05-05T16:35:56.339Z,98815.94
2023-05-05T16:38:25.874Z,98804.97
2023-05-05T16:40:52.429Z,98811.47
2023-05-05T16:43:19.586Z,98811.59
2023-05-05T16:45:46.532Z,98811.72
2023-05-05T16:48:14.749Z,98785.00
2023-05-05T16:50:41.515Z,98809.19
2023-05-05T16:53:09.921Z,98811.59
2023-05-05T16:55:37.272Z,98815.22
2023-05-05T16:58:04.240Z,98812.56
2023-05-05T17:00:30.820Z,98781.41
2023-05-05T17:02:57.439Z,98814.75
2023-05-05T17:05:24.161Z,98816.19
2023-05-05T17:07:51.030Z,98810.25
2023-05-05T17:10:17.578Z,98812.09
2023-05-05T17:12:44.582Z,98806.41
2023-05-05T17:15:11.490Z,98807.38
2023-05-05T17:17:38.257Z,98821.75
2023-05-05T17:20:05.687Z,98788.88
2023-05-05T17:22:32.273Z,98820.19
2023-05-05T17:24:58.901Z,98760.38
2023-05-05T17:27:25.907Z,98825.56
2023-05-05T17:29:53.631Z,98817.88
2023-05-05T17:32:20.461Z,98814.72
2023-05-05T17:34:47.056Z,98833.78
2023-05-05T17:37:14.034Z,98828.47
2023-05-05T17:39:40.528Z,98787.91
2023-05-05T17:42:07.190Z,98822.44
2023-05-05T17:44:33.766Z,98821.00
2023-05-05T17:47:02.644Z,98813.22
2023-05-05T17:49:29.426Z,98824.47
2023-05-05T17:51:55.997Z,98825.09
2023-05-05T17:54:22.557Z,98819.91
2023-05-05T17:56:49.268Z,98807.78
2023-05-05T17:59:15.914Z,98808.31
2023-05-05T18:01:42.725Z,98832.44
2023-05-05T18:04:09.728Z,98828.06
2023-05-05T18:06:36.502Z,98831.59
2023-05-05T18:09:05.721Z,98829.88
2023-05-05T18:11:32.347Z,98830.97
2023-05-05T18:13:58.932Z,98812.38
2023-05-05T18:16:25.684Z,98833.63
2023-05-05T18:18:52.420Z,98820.44
2023-05-05T18:21:21.126Z,98819.59
2023-05-05T18:23:47.709Z,98827.31
2023-05-05T18:26:14.290Z,98839.28
2023-05-05T18:28:40.844Z,98821.44
2023-05-05T18:31:08.021Z,98823.47
2023-05-05T18:33:34.675Z,98848.31
2023-05-05T18:36:06.023Z,98840.34
2023-05-05T18:38:32.793Z,98848.44
2023-05-05T18:40:59.543Z,98823.06
2023-05-05T18:43:26.101Z,98836.59
2023-05-05T18:45:52.740Z,98837.69
2023-05-05T18:48:19.415Z,98830.69
2023-05-05T18:50:46.788Z,98846.88
2023-05-05T18:53:14.907Z,98846.00
2023-05-05T18:55:42.922Z,98853.97
2023-05-05T18:58:09.600Z,98856.72
2023-05-05T19:00:36.441Z,98843.09
2023-05-05T19:03:06.400Z,98843.94
2023-05-05T19:05:32.964Z,98852.38
2023-05-05T19:07:59.937Z,98847.22
2023-05-05T19:10:27.059Z,98793.13
2023-05-05T19:12:55.387Z,98848.16
2023-05-05T19:15:24.354Z,98848.50
2023-05-05T19:17:51.338Z,98843.81
2023-05-05T19:20:18.133Z,98824.41
2023-05-05T19:22:47.196Z,98795.66
2023-05-05T19:25:14.378Z,98843.94
2023-05-05T19:27:41.423Z,98822.72
2023-05-05T19:30:08.786Z,98840.47
2023-05-05T19:32:35.611Z,98820.06
2023-05-05T19:35:02.697Z,98834.41
2023-05-05T19:37:29.285Z,98830.91
2023-05-05T19:39:56.519Z,98839.72
2023-05-05T19:42:25.750Z,98789.97
2023-05-05T19:44:52.444Z,98834.63
2023-05-05T19:47:19.048Z,98843.44
2023-05-05T19:49:45.995Z,98840.81
2023-05-05T19:52:12.520Z,98839.09
2023-05-05T19:54:43.404Z,98827.28
2023-05-05T19:57:10.306Z,98840.06
2023-05-05T19:59:36.997Z,98835.84
2023-05-05T20:02:07.735Z,98836.56
2023-05-05T20:04:34.390Z,98839.31
2023-05-05T20:07:00.954Z,98815.44
2023-05-05T20:09:27.695Z,98827.88
2023-05-05T20:11:55.805Z,98840.31
2023-05-05T20:14:22.402Z,98823.53
2023-05-05T20:16:48.993Z,98831.50
2023-05-05T20:21:42.096Z,98823.66
2023-05-05T20:24:11.485Z,98821.47
2023-05-05T20:26:38.011Z,98830.75
2023-05-05T20:29:04.662Z,98831.75
2023-05-05T20:31:31.369Z,98800.34
2023-05-05T20:33:57.940Z,98820.53
2023-05-05T20:36:26.199Z,98808.34
2023-05-05T20:38:52.827Z,98818.81
2023-05-05T20:41:19.407Z,98806.16
2023-05-05T20:43:48.039Z,98817.00
2023-05-05T20:46:14.641Z,98829.56
2023-05-05T20:48:42.903Z,98811.94
2023-05-05T20:51:10.089Z,98815.56
2023-05-05T20:53:36.724Z,98806.72
2023-05-05T20:56:04.777Z,98825.22
2023-05-05T20:58:32.872Z,98824.47
2023-05-05T21:00:59.626Z,98814.31
2023-05-05T21:03:27.338Z,98828.94
2023-05-05T21:05:54.254Z,98835.31
2023-05-05T21:08:20.879Z,98823.22
2023-05-05T21:10:47.402Z,98810.69
2023-05-05T21:13:14.007Z,98832.03
2023-05-05T21:15:40.634Z,98839.63
2023-05-05T21:18:07.538Z,98831.81
2023-05-05T21:20:34.981Z,98824.19
2023-05-05T21:23:01.584Z,98830.97
2023-05-05T21:25:29.962Z,98825.66
2023-05-05T21:27:56.565Z,98820.47
2023-05-05T21:30:23.820Z,98812.13
2023-05-05T21:32:52.308Z,98816.16
2023-05-05T21:35:18.938Z,98824.09
2023-05-05T21:37:46.003Z,98813.50
2023-05-05T21:40:13.946Z,98813.59
2023-05-05T21:42:42.239Z,98811.06
2023-05-05T21:45:10.668Z,98811.66
2023-05-05T21:47:37.364Z,98809.50
2023-05-05T21:50:04.182Z,98817.22
2023-05-05T21:52:30.784Z,98779.78
2023-05-05T21:54:57.351Z,98797.03
2023-05-05T21:57:24.000Z,98812.88
2023-05-05T21:59:50.877Z,98812.00
2023-05-05T22:02:17.487Z,98796.69
2023-05-05T22:04:48.324Z,98814.66
2023-05-05T22:07:15.403Z,98804.19
2023-05-05T22:09:42.275Z,98814.78
2023-05-05T22:12:08.838Z,98812.13
2023-05-05T22:14:35.797Z,98814.78
2023-05-05T22:17:02.433Z,98803.69
2023-05-05T22:19:28.992Z,98794.50
2023-05-05T22:21:58.675Z,98807.78
2023-05-05T22:24:26.004Z,98799.59
2023-05-05T22:26:53.554Z,98802.13
2023-05-05T22:29:20.087Z,98807.09
2023-05-05T22:31:46.706Z,98803.56
2023-05-05T22:34:13.850Z,98808.25
2023-05-05T22:36:40.707Z,98807.16
2023-05-05T22:39:07.366Z,98805.59
2023-05-05T22:41:33.922Z,98812.47
2023-05-05T22:44:00.650Z,98805.59
2023-05-05T22:46:27.292Z,98780.56
2023-05-05T22:48:54.300Z,98813.88
2023-05-05T22:51:20.908Z,98807.53
2023-05-05T22:53:47.384Z,98818.03
2023-05-05T22:56:14.093Z,98812.72
2023-05-05T22:58:40.700Z,98812.72
2023-05-05T23:01:07.332Z,98815.72
2023-05-05T23:03:33.939Z,98803.19
2023-05-05T23:06:00.586Z,98807.53
2023-05-05T23:08:27.108Z,98795.47
2023-05-05T23:10:53.927Z,98782.88
2023-05-05T23:13:20.967Z,98803.28
2023-05-05T23:15:47.601Z,98795.34
2023-05-05T23:18:14.115Z,98791.03
2023-05-05T23:20:40.715Z,98787.59
2023-05-05T23:23:07.275Z,98772.78
2023-05-05T23:25:33.917Z,98778.59
2023-05-05T23:28:00.597Z,98771.91
2023-05-05T23:30:27.245Z,98761.69
2023-05-05T23:32:54.766Z,98772.78
2023-05-05T23:35:21.694Z,98772.66
2023-05-05T23:37:48.999Z,98776.13
2023-05-05T23:40:15.583Z,98770.97
2023-05-05T23:42:42.210Z,98770.25
2023-05-05T23:45:09.703Z,98766.63
2023-05-05T23:47:36.526Z,98772.78
2023-05-05T23:50:03.590Z,98746.25
2023-05-05T23:52:30.206Z,98761.44
2023-05-05T23:54:56.794Z,98773.84
2023-05-05T23:57:23.426Z,98763.25
2023-05-05T23:59:50.140Z,98766.75
